sensor_id;sensor_type;location;lat;lon;timestamp;pressure;altitude;pressure_sealevel;temperature;humidity
73679;BME280;61978;52.742;16.962;2022-11-20T00:01:14;100268.59;;;-0.20;100.00
73679;BME280;61978;52.742;16.962;2022-11-20T00:03:42;100258.47;;;-0.15;100.00
73679;BME280;61978;52.742;16.962;2022-11-20T00:06:11;100260.69;;;-0.05;100.00
73679;BME280;61978;52.742;16.962;2022-11-20T00:08:40;100258.74;;;-0.03;100.00
73679;BME280;61978;52.742;16.962;2022-11-20T00:11:16;100259.73;;;-0.04;100.00
73679;BME280;61978;52.742;16.962;2022-11-20T00:13:45;100271.66;;;-0.09;100.00
73679;BME280;61978;52.742;16.962;2022-11-20T00:16:14;100269.81;;;-0.03;100.00
73679;BME280;61978;52.742;16.962;2022-11-20T00:18:44;100268.13;;;-0.04;100.00
73679;BME280;61978;52.742;16.962;2022-11-20T00:21:21;100263.76;;;0.00;100.00
73679;BME280;61978;52.742;16.962;2022-11-20T00:23:45;100273.77;;;-0.03;100.00
73679;BME280;61978;52.742;16.962;2022-11-20T00:26:14;100275.57;;;-0.04;100.00
73679;BME280;61978;52.742;16.962;2022-11-20T00:28:42;100281.28;;;0.02;100.00
73679;BME280;61978;52.742;16.962;2022-11-20T00:31:13;100278.16;;;0.02;100.00
73679;BME280;61978;52.742;16.962;2022-11-20T00:33:41;100272.19;;;0.00;100.00
73679;BME280;61978;52.742;16.962;2022-11-20T00:36:13;100275.20;;;-0.05;100.00
73679;BME280;61978;52.742;16.962;2022-11-20T00:38:43;100283.17;;;-0.10;100.00
73679;BME280;61978;52.742;16.962;2022-11-20T00:41:13;100278.55;;;-0.03;100.00
73679;BME280;61978;52.742;16.962;2022-11-20T00:43:41;100286.39;;;-0.07;100.00
73679;BME280;61978;52.742;16.962;2022-11-20T00:46:12;100282.50;;;-0.03;100.00
73679;BME280;61978;52.742;16.962;2022-11-20T00:48:42;100297.95;;;-0.13;100.00
73679;BME280;61978;52.742;16.962;2022-11-20T00:51:11;100281.14;;;0.03;100.00
73679;BME280;61978;52.742;16.962;2022-11-20T00:53:38;100287.63;;;0.05;100.00
73679;BME280;61978;52.742;16.962;2022-11-20T00:56:09;100295.80;;;0.02;100.00
73679;BME280;61978;52.742;16.962;2022-11-20T00:58:38;100293.33;;;-0.06;100.00
73679;BME280;61978;52.742;16.962;2022-11-20T01:01:14;100289.61;;;-0.03;100.00
73679;BME280;61978;52.742;16.962;2022-11-20T01:03:46;100295.95;;;0.00;100.00
73679;BME280;61978;52.742;16.962;2022-11-20T01:06:15;100296.69;;;-0.04;100.00
73679;BME280;61978;52.742;16.962;2022-11-20T01:08:44;100295.16;;;-0.06;100.00
73679;BME280;61978;52.742;16.962;2022-11-20T01:11:19;100289.36;;;-0.06;100.00
73679;BME280;61978;52.742;16.962;2022-11-20T01:13:43;100296.11;;;-0.07;100.00
73679;BME280;61978;52.742;16.962;2022-11-20T01:16:15;100298.75;;;-0.07;100.00
73679;BME280;61978;52.742;16.962;2022-11-20T01:18:45;100287.19;;;-0.01;100.00
73679;BME280;61978;52.742;16.962;2022-11-20T01:21:15;100303.92;;;-0.11;100.00
73679;BME280;61978;52.742;16.962;2022-11-20T01:23:44;100308.80;;;-0.22;100.00
73679;BME280;61978;52.742;16.962;2022-11-20T01:26:15;100299.38;;;-0.15;100.00
73679;BME280;61978;52.742;16.962;2022-11-20T01:28:43;100283.87;;;-0.08;100.00
73679;BME280;61978;52.742;16.962;2022-11-20T01:31:16;100289.03;;;-0.07;100.00
73679;BME280;61978;52.742;16.962;2022-11-20T01:33:45;100287.61;;;-0.11;100.00
73679;BME280;61978;52.742;16.962;2022-11-20T01:36:13;100289.55;;;-0.13;100.00
73679;BME280;61978;52.742;16.962;2022-11-20T01:38:41;100291.09;;;-0.10;100.00
73679;BME280;61978;52.742;16.962;2022-11-20T01:41:11;100286.81;;;-0.17;100.00
73679;BME280;61978;52.742;16.962;2022-11-20T01:43:41;100291.83;;;-0.14;100.00
73679;BME280;61978;52.742;16.962;2022-11-20T01:46:15;100289.59;;;-0.18;100.00
73679;BME280;61978;52.742;16.962;2022-11-20T01:48:47;100291.47;;;-0.15;100.00
73679;BME280;61978;52.742;16.962;2022-11-20T01:51:18;100293.45;;;-0.22;100.00
73679;BME280;61978;52.742;16.962;2022-11-20T01:53:46;100299.83;;;-0.25;100.00
73679;BME280;61978;52.742;16.962;2022-11-20T01:56:14;100285.81;;;-0.10;100.00
73679;BME280;61978;52.742;16.962;2022-11-20T01:58:48;100292.45;;;-0.16;100.00
73679;BME280;61978;52.742;16.962;2022-11-20T02:01:13;100283.69;;;-0.16;100.00
73679;BME280;61978;52.742;16.962;2022-11-20T02:03:41;100274.30;;;-0.15;100.00
73679;BME280;61978;52.742;16.962;2022-11-20T02:08:39;100269.91;;;-0.20;100.00
73679;BME280;61978;52.742;16.962;2022-11-20T02:11:07;100281.25;;;-0.29;100.00
73679;BME280;61978;52.742;16.962;2022-11-20T02:13:35;100276.59;;;-0.31;100.00
73679;BME280;61978;52.742;16.962;2022-11-20T02:18:45;100275.19;;;-0.20;100.00
73679;BME280;61978;52.742;16.962;2022-11-20T02:21:32;100283.77;;;-0.27;100.00
73679;BME280;61978;52.742;16.962;2022-11-20T02:24:01;100278.78;;;-0.21;100.00
73679;BME280;61978;52.742;16.962;2022-11-20T02:26:31;100270.17;;;-0.23;100.00
73679;BME280;61978;52.742;16.962;2022-11-20T02:29:01;100279.59;;;-0.30;100.00
73679;BME280;61978;52.742;16.962;2022-11-20T02:31:30;100272.12;;;-0.25;100.00
73679;BME280;61978;52.742;16.962;2022-11-20T02:33:59;100269.62;;;-0.32;100.00
73679;BME280;61978;52.742;16.962;2022-11-20T02:36:27;100271.58;;;-0.34;100.00
73679;BME280;61978;52.742;16.962;2022-11-20T02:38:56;100276.48;;;-0.35;100.00
73679;BME280;61978;52.742;16.962;2022-11-20T02:41:35;100268.05;;;-0.29;100.00
73679;BME280;61978;52.742;16.962;2022-11-20T02:44:04;100276.45;;;-0.29;100.00
73679;BME280;61978;52.742;16.962;2022-11-20T02:46:32;100275.27;;;-0.31;100.00
73679;BME280;61978;52.742;16.962;2022-11-20T02:49:02;100277.22;;;-0.33;100.00
73679;BME280;61978;52.742;16.962;2022-11-20T02:51:30;100273.52;;;-0.36;100.00
73679;BME280;61978;52.742;16.962;2022-11-20T02:53:58;100274.84;;;-0.41;100.00
73679;BME280;61978;52.742;16.962;2022-11-20T02:56:25;100268.72;;;-0.36;100.00
73679;BME280;61978;52.742;16.962;2022-11-20T02:58:53;100271.61;;;-0.39;100.00
73679;BME280;61978;52.742;16.962;2022-11-20T03:01:20;100267.98;;;-0.38;100.00
73679;BME280;61978;52.742;16.962;2022-11-20T03:03:47;100267.72;;;-0.30;100.00
73679;BME280;61978;52.742;16.962;2022-11-20T03:06:16;100266.99;;;-0.32;100.00
73679;BME280;61978;52.742;16.962;2022-11-20T03:08:43;100265.16;;;-0.26;100.00
73679;BME280;61978;52.742;16.962;2022-11-20T03:11:12;100262.47;;;-0.20;100.00
73679;BME280;61978;52.742;16.962;2022-11-20T03:13:39;100262.95;;;-0.21;100.00
73679;BME280;61978;52.742;16.962;2022-11-20T03:16:12;100261.47;;;-0.14;100.00
73679;BME280;61978;52.742;16.962;2022-11-20T03:18:37;100257.87;;;-0.13;100.00
73679;BME280;61978;52.742;16.962;2022-11-20T03:21:05;100261.47;;;-0.14;100.00
73679;BME280;61978;52.742;16.962;2022-11-20T03:23:33;100265.87;;;-0.09;100.00
73679;BME280;61978;52.742;16.962;2022-11-20T03:26:10;100266.70;;;-0.08;100.00
73679;BME280;61978;52.742;16.962;2022-11-20T03:28:37;100270.34;;;-0.15;100.00
73679;BME280;61978;52.742;16.962;2022-11-20T03:31:11;100263.94;;;-0.22;100.00
73679;BME280;61978;52.742;16.962;2022-11-20T03:33:40;100257.52;;;-0.14;100.00
73679;BME280;61978;52.742;16.962;2022-11-20T03:36:15;100261.30;;;-0.22;100.00
73679;BME280;61978;52.742;16.962;2022-11-20T03:38:40;100265.73;;;-0.22;100.00
73679;BME280;61978;52.742;16.962;2022-11-20T03:41:13;100264.63;;;-0.20;100.00
73679;BME280;61978;52.742;16.962;2022-11-20T03:43:40;100259.61;;;-0.23;100.00
73679;BME280;61978;52.742;16.962;2022-11-20T03:46:09;100253.77;;;-0.11;100.00
73679;BME280;61978;52.742;16.962;2022-11-20T03:48:38;100251.40;;;0.01;100.00
73679;BME280;61978;52.742;16.962;2022-11-20T03:51:13;100249.81;;;0.04;100.00
73679;BME280;61978;52.742;16.962;2022-11-20T03:53:42;100255.19;;;-0.07;100.00
73679;BME280;61978;52.742;16.962;2022-11-20T03:56:12;100253.92;;;-0.13;100.00
73679;BME280;61978;52.742;16.962;2022-11-20T03:58:40;100251.34;;;-0.09;100.00
73679;BME280;61978;52.742;16.962;2022-11-20T04:01:13;100245.26;;;-0.09;100.00
73679;BME280;61978;52.742;16.962;2022-11-20T04:03:38;100244.48;;;-0.06;100.00
73679;BME280;61978;52.742;16.962;2022-11-20T04:06:13;100256.30;;;-0.10;100.00
73679;BME280;61978;52.742;16.962;2022-11-20T04:08:37;100260.14;;;-0.29;100.00
73679;BME280;61978;52.742;16.962;2022-11-20T04:13:58;100249.64;;;-0.19;100.00
73679;BME280;61978;52.742;16.962;2022-11-20T04:16:24;100252.13;;;-0.18;100.00
73679;BME280;61978;52.742;16.962;2022-11-20T04:18:52;100262.52;;;-0.26;100.00
73679;BME280;61978;52.742;16.962;2022-11-20T04:21:20;100259.80;;;-0.30;100.00
73679;BME280;61978;52.742;16.962;2022-11-20T04:23:48;100248.73;;;-0.29;100.00
73679;BME280;61978;52.742;16.962;2022-11-20T04:26:15;100251.12;;;-0.26;100.00
73679;BME280;61978;52.742;16.962;2022-11-20T04:28:42;100248.84;;;-0.25;100.00
73679;BME280;61978;52.742;16.962;2022-11-20T04:31:12;100248.27;;;-0.29;100.00
73679;BME280;61978;52.742;16.962;2022-11-20T04:33:41;100244.19;;;-0.27;100.00
73679;BME280;61978;52.742;16.962;2022-11-20T04:36:11;100240.48;;;-0.30;100.00
73679;BME280;61978;52.742;16.962;2022-11-20T04:38:38;100239.22;;;-0.36;100.00
73679;BME280;61978;52.742;16.962;2022-11-20T04:41:08;100235.16;;;-0.40;100.00
73679;BME280;61978;52.742;16.962;2022-11-20T04:43:37;100242.59;;;-0.39;100.00
73679;BME280;61978;52.742;16.962;2022-11-20T04:46:05;100228.03;;;-0.34;100.00
73679;BME280;61978;52.742;16.962;2022-11-20T04:48:34;100241.75;;;-0.40;100.00
73679;BME280;61978;52.742;16.962;2022-11-20T04:51:04;100240.69;;;-0.43;100.00
73679;BME280;61978;52.742;16.962;2022-11-20T04:53:31;100236.84;;;-0.44;100.00
73679;BME280;61978;52.742;16.962;2022-11-20T04:56:04;100244.39;;;-0.40;100.00
73679;BME280;61978;52.742;16.962;2022-11-20T04:58:32;100241.92;;;-0.32;100.00
73679;BME280;61978;52.742;16.962;2022-11-20T05:01:09;100237.17;;;-0.38;100.00
73679;BME280;61978;52.742;16.962;2022-11-20T05:03:37;100240.17;;;-0.37;100.00
73679;BME280;61978;52.742;16.962;2022-11-20T05:06:05;100239.80;;;-0.38;100.00
73679;BME280;61978;52.742;16.962;2022-11-20T05:08:33;100230.52;;;-0.27;100.00
73679;BME280;61978;52.742;16.962;2022-11-20T05:11:11;100230.84;;;-0.26;100.00
73679;BME280;61978;52.742;16.962;2022-11-20T05:13:38;100244.04;;;-0.26;100.00
73679;BME280;61978;52.742;16.962;2022-11-20T05:16:12;100236.66;;;-0.17;100.00
73679;BME280;61978;52.742;16.962;2022-11-20T05:18:37;100230.84;;;-0.26;100.00
73679;BME280;61978;52.742;16.962;2022-11-20T05:21:07;100235.17;;;-0.25;100.00
73679;BME280;61978;52.742;16.962;2022-11-20T05:23:34;100231.75;;;-0.16;100.00
73679;BME280;61978;52.742;16.962;2022-11-20T05:26:04;100232.22;;;-0.16;100.00
73679;BME280;61978;52.742;16.962;2022-11-20T05:28:32;100240.98;;;-0.16;100.00
73679;BME280;61978;52.742;16.962;2022-11-20T05:31:08;100243.95;;;-0.15;100.00
73679;BME280;61978;52.742;16.962;2022-11-20T05:33:40;100238.15;;;-0.09;100.00
73679;BME280;61978;52.742;16.962;2022-11-20T05:36:09;100232.88;;;-0.09;100.00
73679;BME280;61978;52.742;16.962;2022-11-20T05:38:37;100235.08;;;-0.14;100.00
73679;BME280;61978;52.742;16.962;2022-11-20T05:41:13;100230.76;;;-0.15;100.00
73679;BME280;61978;52.742;16.962;2022-11-20T05:43:44;100226.73;;;-0.04;100.00
73679;BME280;61978;52.742;16.962;2022-11-20T05:46:14;100233.50;;;-0.11;100.00
73679;BME280;61978;52.742;16.962;2022-11-20T05:48:43;100238.40;;;-0.06;100.00
73679;BME280;61978;52.742;16.962;2022-11-20T05:51:14;100241.73;;;-0.04;100.00
73679;BME280;61978;52.742;16.962;2022-11-20T05:53:41;100241.73;;;-0.04;100.00
73679;BME280;61978;52.742;16.962;2022-11-20T05:56:11;100235.30;;;-0.11;100.00
73679;BME280;61978;52.742;16.962;2022-11-20T05:58:38;100235.66;;;-0.10;100.00
73679;BME280;61978;52.742;16.962;2022-11-20T06:01:16;100232.70;;;-0.17;100.00
73679;BME280;61978;52.742;16.962;2022-11-20T06:03:43;100225.79;;;-0.08;100.00
73679;BME280;61978;52.742;16.962;2022-11-20T06:06:14;100223.34;;;0.00;100.00
73679;BME280;61978;52.742;16.962;2022-11-20T06:08:42;100218.88;;;0.00;100.00
73679;BME280;61978;52.742;16.962;2022-11-20T06:11:11;100235.18;;;-0.10;100.00
73679;BME280;61978;52.742;16.962;2022-11-20T06:13:39;100229.59;;;-0.01;100.00
73679;BME280;61978;52.742;16.962;2022-11-20T06:16:07;100232.80;;;0.03;100.00
73679;BME280;61978;52.742;16.962;2022-11-20T06:18:35;100229.59;;;-0.01;100.00
73679;BME280;61978;52.742;16.962;2022-11-20T06:21:11;100233.61;;;0.03;100.00
73679;BME280;61978;52.742;16.962;2022-11-20T06:23:39;100232.92;;;0.01;100.00
73679;BME280;61978;52.742;16.962;2022-11-20T06:26:15;100221.47;;;0.06;100.00
73679;BME280;61978;52.742;16.962;2022-11-20T06:28:40;100227.42;;;0.14;100.00
73679;BME280;61978;52.742;16.962;2022-11-20T06:31:09;100233.50;;;0.05;100.00
73679;BME280;61978;52.742;16.962;2022-11-20T06:33:36;100234.33;;;0.20;100.00
73679;BME280;61978;52.742;16.962;2022-11-20T06:36:04;100234.65;;;0.12;100.00
73679;BME280;61978;52.742;16.962;2022-11-20T06:38:32;100231.02;;;0.13;100.00
73679;BME280;61978;52.742;16.962;2022-11-20T06:41:00;100229.96;;;0.10;100.00
73679;BME280;61978;52.742;16.962;2022-11-20T06:43:29;100237.55;;;0.09;100.00
73679;BME280;61978;52.742;16.962;2022-11-20T06:45:58;100240.36;;;0.17;100.00
73679;BME280;61978;52.742;16.962;2022-11-20T06:48:28;100238.14;;;0.22;100.00
73679;BME280;61978;52.742;16.962;2022-11-20T06:50:56;100235.19;;;0.15;100.00
73679;BME280;61978;52.742;16.962;2022-11-20T06:53:24;100240.52;;;0.25;100.00
73679;BME280;61978;52.742;16.962;2022-11-20T06:55:56;100235.50;;;0.22;100.00
73679;BME280;61978;52.742;16.962;2022-11-20T06:58:27;100248.02;;;0.20;100.00
73679;BME280;61978;52.742;16.962;2022-11-20T07:00:59;100235.86;;;0.23;100.00
73679;BME280;61978;52.742;16.962;2022-11-20T07:03:26;100232.07;;;0.16;100.00
73679;BME280;61978;52.742;16.962;2022-11-20T07:05:57;100234.86;;;0.14;100.00
73679;BME280;61978;52.742;16.962;2022-11-20T07:08:25;100239.52;;;0.16;100.00
73679;BME280;61978;52.742;16.962;2022-11-20T07:10:56;100234.41;;;0.09;100.00
73679;BME280;61978;52.742;16.962;2022-11-20T07:13:21;100222.23;;;0.27;100.00
73679;BME280;61978;52.742;16.962;2022-11-20T07:15:48;100231.20;;;0.21;100.00
73679;BME280;61978;52.742;16.962;2022-11-20T07:18:15;100227.00;;;0.18;100.00
73679;BME280;61978;52.742;16.962;2022-11-20T07:20:42;100227.41;;;0.29;100.00
73679;BME280;61978;52.742;16.962;2022-11-20T07:23:09;100219.86;;;0.24;100.00
73679;BME280;61978;52.742;16.962;2022-11-20T07:25:36;100227.58;;;0.22;100.00
73679;BME280;61978;52.742;16.962;2022-11-20T07:28:02;100221.91;;;0.26;100.00
73679;BME280;61978;52.742;16.962;2022-11-20T07:30:30;100215.25;;;0.32;100.00
73679;BME280;61978;52.742;16.962;2022-11-20T07:32:59;100211.91;;;0.39;100.00
73679;BME280;61978;52.742;16.962;2022-11-20T07:35:26;100205.42;;;0.53;100.00
73679;BME280;61978;52.742;16.962;2022-11-20T07:37:53;100214.70;;;0.38;100.00
73679;BME280;61978;52.742;16.962;2022-11-20T07:40:20;100208.97;;;0.33;100.00
73679;BME280;61978;52.742;16.962;2022-11-20T07:42:52;100208.49;;;0.33;100.00
73679;BME280;61978;52.742;16.962;2022-11-20T07:45:20;100208.49;;;0.24;100.00
73679;BME280;61978;52.742;16.962;2022-11-20T07:47:48;100210.56;;;0.30;100.00
73679;BME280;61978;52.742;16.962;2022-11-20T07:50:16;100205.38;;;0.34;100.00
73679;BME280;61978;52.742;16.962;2022-11-20T07:52:44;100209.33;;;0.34;100.00
73679;BME280;61978;52.742;16.962;2022-11-20T07:55:12;100218.00;;;0.21;100.00
73679;BME280;61978;52.742;16.962;2022-11-20T07:57:39;100226.05;;;0.19;100.00
73679;BME280;61978;52.742;16.962;2022-11-20T08:00:08;100220.64;;;0.21;100.00
73679;BME280;61978;52.742;16.962;2022-11-20T08:02:40;100224.09;;;0.21;100.00
73679;BME280;61978;52.742;16.962;2022-11-20T08:05:09;100229.05;;;0.20;100.00
73679;BME280;61978;52.742;16.962;2022-11-20T08:07:38;100224.35;;;0.09;100.00
73679;BME280;61978;52.742;16.962;2022-11-20T08:10:06;100225.31;;;0.08;100.00
73679;BME280;61978;52.742;16.962;2022-11-20T08:12:34;100219.23;;;0.17;100.00
73679;BME280;61978;52.742;16.962;2022-11-20T08:15:19;100227.69;;;0.11;100.00
73679;BME280;61978;52.742;16.962;2022-11-20T08:17:46;100224.24;;;0.20;100.00
73679;BME280;61978;52.742;16.962;2022-11-20T08:20:14;100220.23;;;0.25;100.00
73679;BME280;61978;52.742;16.962;2022-11-20T08:22:41;100225.36;;;0.27;100.00
73679;BME280;61978;52.742;16.962;2022-11-20T08:25:09;100216.11;;;0.27;100.00
73679;BME280;61978;52.742;16.962;2022-11-20T08:27:36;100225.03;;;0.26;100.00
73679;BME280;61978;52.742;16.962;2022-11-20T08:30:04;100222.12;;;0.29;100.00
73679;BME280;61978;52.742;16.962;2022-11-20T08:32:31;100208.11;;;0.38;100.00
73679;BME280;61978;52.742;16.962;2022-11-20T08:34:57;100212.22;;;0.46;100.00
73679;BME280;61978;52.742;16.962;2022-11-20T08:37:25;100217.17;;;0.30;100.00
73679;BME280;61978;52.742;16.962;2022-11-20T08:39:52;100224.67;;;0.25;100.00
73679;BME280;61978;52.742;16.962;2022-11-20T08:42:21;100221.24;;;0.19;100.00
73679;BME280;61978;52.742;16.962;2022-11-20T08:44:48;100212.16;;;0.27;100.00
73679;BME280;61978;52.742;16.962;2022-11-20T08:47:17;100215.84;;;0.30;100.00
73679;BME280;61978;52.742;16.962;2022-11-20T08:49:46;100215.16;;;0.28;100.00
73679;BME280;61978;52.742;16.962;2022-11-20T08:52:13;100208.34;;;0.50;100.00
73679;BME280;61978;52.742;16.962;2022-11-20T08:54:40;100210.41;;;0.46;100.00
73679;BME280;61978;52.742;16.962;2022-11-20T08:57:09;100212.45;;;0.33;100.00
73679;BME280;61978;52.742;16.962;2022-11-20T08:59:36;100207.86;;;0.50;100.00
73679;BME280;61978;52.742;16.962;2022-11-20T09:02:03;100214.53;;;0.30;100.00
73679;BME280;61978;52.742;16.962;2022-11-20T09:04:30;100210.80;;;0.42;100.00
73679;BME280;61978;52.742;16.962;2022-11-20T09:07:01;100233.97;;;0.19;100.00
73679;BME280;61978;52.742;16.962;2022-11-20T09:09:30;100224.03;;;0.27;100.00
73679;BME280;61978;52.742;16.962;2022-11-20T09:11:58;100229.63;;;0.09;100.00
73679;BME280;61978;52.742;16.962;2022-11-20T09:14:25;100223.50;;;0.33;100.00
73679;BME280;61978;52.742;16.962;2022-11-20T09:16:55;100210.39;;;0.37;100.00
73679;BME280;61978;52.742;16.962;2022-11-20T09:19:23;100225.16;;;0.49;100.00
73679;BME280;61978;52.742;16.962;2022-11-20T09:21:51;100222.88;;;0.50;100.00
73679;BME280;61978;52.742;16.962;2022-11-20T09:24:18;100225.88;;;0.36;100.00
73679;BME280;61978;52.742;16.962;2022-11-20T09:26:46;100236.80;;;0.37;100.00
73679;BME280;61978;52.742;16.962;2022-11-20T09:29:13;100234.60;;;0.27;100.00
73679;BME280;61978;52.742;16.962;2022-11-20T09:31:40;100236.38;;;0.32;100.00
73679;BME280;61978;52.742;16.962;2022-11-20T09:34:08;100240.13;;;0.29;100.00
73679;BME280;61978;52.742;16.962;2022-11-20T09:36:36;100231.21;;;0.30;100.00
73679;BME280;61978;52.742;16.962;2022-11-20T09:39:03;100237.34;;;0.31;100.00
73679;BME280;61978;52.742;16.962;2022-11-20T09:41:43;100243.05;;;0.36;100.00
73679;BME280;61978;52.742;16.962;2022-11-20T09:53:00;100242.09;;;0.37;100.00
73679;BME280;61978;52.742;16.962;2022-11-20T09:55:23;100221.61;;;0.54;100.00
73679;BME280;61978;52.742;16.962;2022-11-20T09:57:52;100222.47;;;0.64;100.00
73679;BME280;61978;52.742;16.962;2022-11-20T10:00:19;100222.84;;;0.84;100.00
73679;BME280;61978;52.742;16.962;2022-11-20T10:05:30;100225.29;;;0.91;100.00
73679;BME280;61978;52.742;16.962;2022-11-20T10:10:48;100217.57;;;1.03;100.00
73679;BME280;61978;52.742;16.962;2022-11-20T10:22:06;100217.14;;;1.18;100.00
73679;BME280;61978;52.742;16.962;2022-11-20T10:27:31;100222.51;;;1.12;100.00
73679;BME280;61978;52.742;16.962;2022-11-20T10:30:11;100229.95;;;1.13;100.00
73679;BME280;61978;52.742;16.962;2022-11-20T10:32:46;100246.58;;;0.99;100.00
73679;BME280;61978;52.742;16.962;2022-11-20T10:35:28;100231.84;;;1.06;100.00
73679;BME280;61978;52.742;16.962;2022-11-20T10:37:58;100224.92;;;1.29;100.00
73679;BME280;61978;52.742;16.962;2022-11-20T10:40:35;100231.05;;;1.20;100.00
73679;BME280;61978;52.742;16.962;2022-11-20T10:45:58;100236.30;;;1.16;100.00
73679;BME280;61978;52.742;16.962;2022-11-20T10:48:27;100232.60;;;1.13;100.00
73679;BME280;61978;52.742;16.962;2022-11-20T10:51:37;100240.37;;;1.04;100.00
73679;BME280;61978;52.742;16.962;2022-11-20T10:54:03;100231.28;;;1.13;100.00
73679;BME280;61978;52.742;16.962;2022-11-20T10:56:48;100245.47;;;1.11;100.00
73679;BME280;61978;52.742;16.962;2022-11-20T10:59:43;100237.06;;;1.22;100.00
73679;BME280;61978;52.742;16.962;2022-11-20T11:02:24;100233.14;;;1.35;100.00
73679;BME280;61978;52.742;16.962;2022-11-20T11:04:53;100243.59;;;1.27;100.00
73679;BME280;61978;52.742;16.962;2022-11-20T11:07:36;100237.98;;;1.40;100.00
73679;BME280;61978;52.742;16.962;2022-11-20T11:10:05;100235.98;;;1.47;100.00
73679;BME280;61978;52.742;16.962;2022-11-20T11:12:30;100266.35;;;1.15;100.00
73679;BME280;61978;52.742;16.962;2022-11-20T11:14:57;100249.57;;;1.29;100.00
73679;BME280;61978;52.742;16.962;2022-11-20T11:17:30;100264.48;;;1.21;100.00
73679;BME280;61978;52.742;16.962;2022-11-20T11:22:46;100271.84;;;1.17;100.00
73679;BME280;61978;52.742;16.962;2022-11-20T11:25:22;100255.50;;;1.27;100.00
73679;BME280;61978;52.742;16.962;2022-11-20T11:27:50;100257.94;;;1.25;100.00
73679;BME280;61978;52.742;16.962;2022-11-20T11:30:19;100259.39;;;1.33;100.00
73679;BME280;61978;52.742;16.962;2022-11-20T11:32:48;100274.91;;;1.22;100.00
73679;BME280;61978;52.742;16.962;2022-11-20T11:35:26;100264.69;;;1.33;100.00
73679;BME280;61978;52.742;16.962;2022-11-20T11:38:03;100257.23;;;1.42;100.00
73679;BME280;61978;52.742;16.962;2022-11-20T11:40:33;100254.02;;;1.48;100.00
73679;BME280;61978;52.742;16.962;2022-11-20T11:43:04;100274.49;;;1.17;100.00
73679;BME280;61978;52.742;16.962;2022-11-20T11:45:32;100281.19;;;1.21;100.00
73679;BME280;61978;52.742;16.962;2022-11-20T11:48:00;100267.05;;;1.36;100.00
73679;BME280;61978;52.742;16.962;2022-11-20T11:50:30;100257.52;;;1.39;100.00
73679;BME280;61978;52.742;16.962;2022-11-20T11:53:16;100263.28;;;1.29;100.00
73679;BME280;61978;52.742;16.962;2022-11-20T11:58:28;100269.49;;;1.33;100.00
73679;BME280;61978;52.742;16.962;2022-11-20T12:06:53;100255.02;;;1.28;100.00
73679;BME280;61978;52.742;16.962;2022-11-20T12:09:23;100254.02;;;1.29;100.00
73679;BME280;61978;52.742;16.962;2022-11-20T12:11:54;100249.84;;;1.45;100.00
73679;BME280;61978;52.742;16.962;2022-11-20T12:14:40;100249.89;;;1.40;100.00
73679;BME280;61978;52.742;16.962;2022-11-20T12:17:12;100245.45;;;1.40;100.00
73679;BME280;61978;52.742;16.962;2022-11-20T12:19:41;100236.53;;;1.51;100.00
73679;BME280;61978;52.742;16.962;2022-11-20T12:25:14;100241.08;;;1.35;100.00
73679;BME280;61978;52.742;16.962;2022-11-20T12:30:23;100237.31;;;1.28;100.00
73679;BME280;61978;52.742;16.962;2022-11-20T12:33:02;100221.50;;;1.42;100.00
73679;BME280;61978;52.742;16.962;2022-11-20T12:43:37;100212.61;;;1.66;100.00
73679;BME280;61978;52.742;16.962;2022-11-20T12:46:35;100213.86;;;1.62;100.00
73679;BME280;61978;52.742;16.962;2022-11-20T12:49:14;100226.70;;;1.57;100.00
73679;BME280;61978;52.742;16.962;2022-11-20T12:57:01;100227.28;;;1.41;100.00
73679;BME280;61978;52.742;16.962;2022-11-20T13:02:43;100214.94;;;1.46;100.00
73679;BME280;61978;52.742;16.962;2022-11-20T13:05:19;100218.49;;;1.50;100.00
73679;BME280;61978;52.742;16.962;2022-11-20T13:07:48;100231.05;;;1.39;100.00
73679;BME280;61978;52.742;16.962;2022-11-20T13:12:59;100229.73;;;1.29;100.00
73679;BME280;61978;52.742;16.962;2022-11-20T13:15:48;100227.84;;;1.26;100.00
73679;BME280;61978;52.742;16.962;2022-11-20T13:18:14;100217.47;;;1.28;100.00
73679;BME280;61978;52.742;16.962;2022-11-20T13:20:43;100215.66;;;1.29;100.00
73679;BME280;61978;52.742;16.962;2022-11-20T13:23:11;100211.77;;;1.33;100.00
73679;BME280;61978;52.742;16.962;2022-11-20T13:25:39;100211.77;;;1.33;100.00
73679;BME280;61978;52.742;16.962;2022-11-20T13:30:51;100214.70;;;1.20;100.00
73679;BME280;61978;52.742;16.962;2022-11-20T13:33:33;100204.23;;;1.38;100.00
73679;BME280;61978;52.742;16.962;2022-11-20T13:38:46;100211.56;;;1.30;100.00
73679;BME280;61978;52.742;16.962;2022-11-20T13:44:14;100202.99;;;1.32;100.00
73679;BME280;61978;52.742;16.962;2022-11-20T13:46:46;100206.60;;;1.31;100.00
73679;BME280;61978;52.742;16.962;2022-11-20T13:52:08;100206.13;;;1.22;100.00
73679;BME280;61978;52.742;16.962;2022-11-20T13:54:45;100207.13;;;1.21;100.00
73679;BME280;61978;52.742;16.962;2022-11-20T13:59:56;100209.28;;;1.12;100.00
73679;BME280;61978;52.742;16.962;2022-11-20T14:02:29;100199.19;;;1.11;100.00
73679;BME280;61978;52.742;16.962;2022-11-20T14:04:56;100193.90;;;1.11;100.00
73679;BME280;61978;52.742;16.962;2022-11-20T14:07:26;100193.26;;;1.13;100.00
73679;BME280;61978;52.742;16.962;2022-11-20T14:09:56;100198.78;;;1.06;100.00
73679;BME280;61978;52.742;16.962;2022-11-20T14:12:29;100197.50;;;1.10;100.00
73679;BME280;61978;52.742;16.962;2022-11-20T14:14:56;100197.38;;;1.02;100.00
73679;BME280;61978;52.742;16.962;2022-11-20T14:17:35;100197.73;;;1.03;100.00